createdAt,value
2023-03-16T00:00:00.034Z,11.63
2023-03-16T00:01:07.345Z,13.73
2023-03-16T00:02:10.880Z,14.10
2023-03-16T00:03:19.456Z,13.07
2023-03-16T00:04:21.433Z,13.40
2023-03-16T00:05:25.853Z,18.55
2023-03-16T00:06:27.279Z,26.45
2023-03-16T00:07:28.970Z,13.88
2023-03-16T00:08:30.814Z,14.98
2023-03-16T00:09:32.343Z,16.98
2023-03-16T00:10:33.754Z,15.05
2023-03-16T00:11:35.173Z,12.23
2023-03-16T00:12:36.614Z,14.52
2023-03-16T00:13:38.103Z,13.90
2023-03-16T00:14:39.502Z,14.85
2023-03-16T00:15:42.055Z,13.77
2023-03-16T00:16:43.556Z,13.93
2023-03-16T00:17:48.355Z,13.43
2023-03-16T00:18:49.826Z,9.57
2023-03-16T00:19:54.716Z,12.85
2023-03-16T00:21:03.790Z,14.13
2023-03-16T00:22:05.334Z,13.73
2023-03-16T00:23:06.842Z,16.35
2023-03-16T00:24:08.956Z,13.05
2023-03-16T00:25:14.275Z,14.02
2023-03-16T00:26:15.687Z,17.10
2023-03-16T00:27:17.400Z,14.18
2023-03-16T00:28:18.840Z,16.25
2023-03-16T00:29:22.655Z,16.83
2023-03-16T00:30:24.139Z,15.88
2023-03-16T00:31:25.668Z,14.23
2023-03-16T00:32:32.522Z,17.77
2023-03-16T00:33:34.809Z,17.70
2023-03-16T00:34:36.185Z,15.65
2023-03-16T00:35:37.595Z,16.60
2023-03-16T00:36:39.227Z,15.35
2023-03-16T00:37:42.823Z,20.33
2023-03-16T00:38:49.093Z,14.98
2023-03-16T00:39:51.290Z,23.25
2023-03-16T00:41:58.298Z,13.85
2023-03-16T00:42:59.773Z,18.80
2023-03-16T00:44:01.177Z,21.23
2023-03-16T00:45:02.683Z,15.23
2023-03-16T00:46:06.832Z,18.40
2023-03-16T00:47:09.145Z,14.93
2023-03-16T00:49:12.715Z,12.10
2023-03-16T00:50:14.156Z,15.15
2023-03-16T00:51:17.818Z,16.52
2023-03-16T00:52:19.558Z,14.95
2023-03-16T00:53:22.159Z,12.25
2023-03-16T00:54:23.592Z,14.20
2023-03-16T00:55:25.040Z,14.13
2023-03-16T00:56:26.457Z,15.52
2023-03-16T00:57:30.115Z,16.58
2023-03-16T00:58:36.148Z,19.52
2023-03-16T00:59:38.329Z,12.57
2023-03-16T01:00:40.852Z,13.07
2023-03-16T01:01:42.484Z,11.95
2023-03-16T01:02:45.413Z,14.82
2023-03-16T01:03:47.238Z,12.48
2023-03-16T01:04:49.151Z,21.67
2023-03-16T01:05:50.566Z,15.13
2023-03-16T01:06:51.998Z,9.02
2023-03-16T01:07:53.448Z,13.85
2023-03-16T01:08:54.896Z,10.82
2023-03-16T01:09:56.326Z,16.33
2023-03-16T01:11:03.487Z,12.75
2023-03-16T01:12:06.447Z,15.55
2023-03-16T01:13:07.847Z,12.35
2023-03-16T01:14:10.762Z,13.18
2023-03-16T01:15:12.219Z,13.20
2023-03-16T01:16:14.774Z,14.35
2023-03-16T01:17:17.577Z,19.00
2023-03-16T01:18:20.228Z,16.35
2023-03-16T01:19:22.774Z,16.90
2023-03-16T01:20:24.275Z,9.73
2023-03-16T01:21:25.768Z,24.42
2023-03-16T01:22:28.552Z,16.70
2023-03-16T01:23:31.259Z,16.55
2023-03-16T01:24:34.722Z,16.25
2023-03-16T01:25:36.122Z,17.95
2023-03-16T01:26:37.576Z,13.32
2023-03-16T01:27:39.058Z,13.98
2023-03-16T01:28:40.481Z,12.80
2023-03-16T01:29:43.551Z,13.15
2023-03-16T01:30:44.968Z,14.75
2023-03-16T01:31:46.439Z,15.40
2023-03-16T01:32:48.197Z,19.55
2023-03-16T01:33:49.698Z,18.02
2023-03-16T01:34:51.162Z,13.70
2023-03-16T01:36:01.380Z,16.27
2023-03-16T01:37:03.185Z,9.95
2023-03-16T01:38:04.773Z,19.27
2023-03-16T01:39:06.783Z,17.02
2023-03-16T01:40:09.137Z,14.43
2023-03-16T01:41:13.658Z,14.13
2023-03-16T01:42:15.293Z,22.25
2023-03-16T01:43:20.569Z,19.23
2023-03-16T01:44:28.188Z,17.98
2023-03-16T01:45:54.381Z,16.05
2023-03-16T01:46:56.443Z,12.82
2023-03-16T01:47:58.729Z,15.30
2023-03-16T01:49:25.138Z,17.80
2023-03-16T01:50:27.596Z,15.55
2023-03-16T01:51:43.777Z,16.30
2023-03-16T01:52:45.764Z,10.80
2023-03-16T01:53:53.001Z,15.10
2023-03-16T01:55:05.823Z,13.00
2023-03-16T01:56:09.902Z,14.38
2023-03-16T01:57:29.109Z,10.48
2023-03-16T01:58:31.518Z,16.65
2023-03-16T01:59:51.489Z,17.80
2023-03-16T02:00:53.912Z,14.95
2023-03-16T02:01:56.727Z,12.30
2023-03-16T02:03:25.608Z,11.98
2023-03-16T02:04:42.289Z,19.33
2023-03-16T02:06:19.140Z,12.95
2023-03-16T02:07:24.617Z,15.10
2023-03-16T02:08:27.518Z,12.40
2023-03-16T02:09:29.569Z,14.07
2023-03-16T02:11:34.757Z,9.75
2023-03-16T02:12:36.285Z,15.77
2023-03-16T02:13:37.768Z,18.00
2023-03-16T02:14:39.160Z,17.23
2023-03-16T02:15:40.752Z,16.60
2023-03-16T02:16:42.637Z,14.95
2023-03-16T02:17:46.127Z,11.75
2023-03-16T02:18:49.159Z,16.70
2023-03-16T02:20:16.161Z,12.73
2023-03-16T02:21:42.839Z,15.98
2023-03-16T02:22:47.887Z,14.48
2023-03-16T02:23:51.510Z,9.93
2023-03-16T02:24:54.059Z,18.30
2023-03-16T02:26:07.630Z,16.67
2023-03-16T02:27:13.785Z,15.75
2023-03-16T02:28:31.977Z,12.93
2023-03-16T02:30:02.664Z,19.08
2023-03-16T02:31:06.102Z,16.27
2023-03-16T02:32:09.022Z,16.85
2023-03-16T02:33:12.060Z,14.27
2023-03-16T02:34:16.270Z,20.40
2023-03-16T02:35:18.359Z,16.63
2023-03-16T02:36:20.039Z,16.33
2023-03-16T02:37:21.819Z,12.20
2023-03-16T02:38:23.332Z,14.82
2023-03-16T02:39:24.877Z,14.73
2023-03-16T02:40:29.965Z,13.13
2023-03-16T02:41:32.808Z,18.30
2023-03-16T02:42:34.429Z,14.48
2023-03-16T02:43:39.214Z,12.82
2023-03-16T02:44:43.695Z,22.20
2023-03-16T02:45:51.077Z,15.15
2023-03-16T02:46:57.096Z,14.43
2023-03-16T02:48:03.516Z,15.50
2023-03-16T02:49:16.266Z,19.30
2023-03-16T02:50:17.804Z,12.55
2023-03-16T02:51:19.228Z,15.82
2023-03-16T02:52:20.845Z,14.15
2023-03-16T02:53:22.352Z,15.20
2023-03-16T02:54:24.651Z,18.67
2023-03-16T02:55:26.109Z,19.52
2023-03-16T02:56:27.647Z,15.13
2023-03-16T02:57:29.176Z,14.35
2023-03-16T02:58:31.831Z,13.52
2023-03-16T02:59:33.259Z,13.32
2023-03-16T03:00:34.768Z,17.73
2023-03-16T03:01:36.645Z,16.98
2023-03-16T03:02:38.076Z,24.95
2023-03-16T03:03:39.942Z,12.15
2023-03-16T03:04:41.864Z,15.30
2023-03-16T03:05:43.378Z,15.98
2023-03-16T03:06:45.242Z,15.75
2023-03-16T03:07:47.178Z,21.02
2023-03-16T03:08:48.637Z,18.63
2023-03-16T03:09:53.526Z,16.83
2023-03-16T03:10:54.970Z,13.95
2023-03-16T03:11:56.412Z,16.88
2023-03-16T03:12:58.240Z,22.67
2023-03-16T03:14:00.098Z,12.98
2023-03-16T03:15:01.527Z,14.38
2023-03-16T03:16:03.098Z,15.52
2023-03-16T03:17:09.772Z,17.50
2023-03-16T03:18:11.596Z,19.02
2023-03-16T03:19:13.701Z,15.23
2023-03-16T03:20:19.718Z,20.65
2023-03-16T03:21:22.067Z,17.77
2023-03-16T03:22:24.081Z,12.18
2023-03-16T03:23:25.540Z,14.45
2023-03-16T03:24:28.015Z,26.02
2023-03-16T03:25:29.516Z,17.10
2023-03-16T03:26:30.934Z,19.90
2023-03-16T03:27:33.409Z,20.65
2023-03-16T03:28:35.252Z,19.30
2023-03-16T03:29:36.899Z,24.67
2023-03-16T03:30:38.614Z,21.30
2023-03-16T03:31:40.236Z,14.13
2023-03-16T03:32:42.189Z,20.25
2023-03-16T03:33:44.326Z,22.60
2023-03-16T03:34:45.752Z,16.67
2023-03-16T03:35:47.252Z,19.88
2023-03-16T03:36:48.769Z,19.73
2023-03-16T03:37:50.794Z,22.92
2023-03-16T03:38:54.739Z,15.25
2023-03-16T03:39:56.192Z,15.27
2023-03-16T03:41:00.363Z,16.73
2023-03-16T03:42:02.922Z,15.88
2023-03-16T03:43:05.500Z,15.20
2023-03-16T03:44:06.953Z,18.38
2023-03-16T03:45:11.747Z,19.83
2023-03-16T03:46:13.240Z,25.92
2023-03-16T03:47:14.846Z,22.88
2023-03-16T03:48:16.259Z,17.27
2023-03-16T03:49:17.929Z,20.40
2023-03-16T03:50:19.540Z,15.65
2023-03-16T03:51:21.682Z,13.80
2023-03-16T03:52:23.142Z,17.35
2023-03-16T03:53:24.752Z,13.43
2023-03-16T03:54:26.241Z,22.38
2023-03-16T03:55:27.666Z,18.77
2023-03-16T03:56:29.114Z,18.52
2023-03-16T03:57:30.548Z,20.92
2023-03-16T03:58:31.977Z,19.58
2023-03-16T03:59:34.932Z,19.17
2023-03-16T04:00:36.537Z,24.13
2023-03-16T04:01:38.067Z,19.58
2023-03-16T04:02:40.123Z,11.32
2023-03-16T04:03:44.758Z,20.73
2023-03-16T04:04:46.700Z,17.88
2023-03-16T04:05:48.134Z,20.58
2023-03-16T04:06:51.132Z,13.32
2023-03-16T04:07:55.069Z,13.35
2023-03-16T04:08:56.545Z,13.43
2023-03-16T04:09:58.012Z,16.90
2023-03-16T04:10:59.462Z,17.27
2023-03-16T04:12:02.723Z,17.50
2023-03-16T04:13:04.461Z,16.98
2023-03-16T04:14:06.275Z,16.02
2023-03-16T04:15:08.210Z,13.80
2023-03-16T04:16:09.634Z,18.98
2023-03-16T04:17:12.336Z,17.98
2023-03-16T04:18:13.757Z,12.57
2023-03-16T04:19:15.192Z,17.73
2023-03-16T04:20:19.444Z,18.83
2023-03-16T04:21:21.173Z,13.23
2023-03-16T04:22:23.113Z,13.90
2023-03-16T04:23:25.095Z,16.00
2023-03-16T04:24:26.623Z,14.73
2023-03-16T04:25:30.375Z,14.88
2023-03-16T04:26:34.206Z,10.27
2023-03-16T04:27:36.547Z,17.75
2023-03-16T04:28:39.440Z,15.73
2023-03-16T04:29:40.867Z,16.40
2023-03-16T04:30:42.946Z,18.40
2023-03-16T04:31:45.066Z,15.52
2023-03-16T04:32:46.534Z,20.02
2023-03-16T04:33:48.325Z,14.52
2023-03-16T04:34:49.728Z,15.88
2023-03-16T04:35:52.212Z,15.52
2023-03-16T04:36:53.882Z,22.58
2023-03-16T04:37:55.340Z,16.23
2023-03-16T04:38:56.789Z,11.75
2023-03-16T04:39:58.244Z,14.55
2023-03-16T04:41:04.332Z,14.90
2023-03-16T04:42:06.548Z,16.48
2023-03-16T04:44:09.347Z,11.90
2023-03-16T04:45:11.257Z,17.33
2023-03-16T04:46:12.669Z,20.30
2023-03-16T04:47:16.463Z,15.52
2023-03-16T04:48:18.372Z,22.65
2023-03-16T04:49:19.924Z,15.75
2023-03-16T04:50:21.330Z,21.75
2023-03-16T04:51:22.759Z,19.88
2023-03-16T04:52:24.192Z,14.77
2023-03-16T04:53:25.668Z,19.45
2023-03-16T04:54:27.064Z,17.38
2023-03-16T04:55:28.816Z,21.65
2023-03-16T04:56:30.358Z,17.17
2023-03-16T04:57:32.253Z,20.00
2023-03-16T04:58:33.791Z,14.30
2023-03-16T04:59:35.251Z,17.33
2023-03-16T05:00:36.654Z,21.10
2023-03-16T05:01:38.320Z,23.33
2023-03-16T05:02:39.854Z,19.85
2023-03-16T05:03:41.349Z,22.92
2023-03-16T05:04:42.821Z,16.95
2023-03-16T05:05:46.287Z,18.83
2023-03-16T05:06:48.175Z,21.77
2023-03-16T05:07:49.721Z,24.90
2023-03-16T05:08:51.127Z,21.95
2023-03-16T05:09:53.127Z,18.40
2023-03-16T05:10:58.998Z,24.73
2023-03-16T05:12:00.588Z,20.52
2023-03-16T05:13:02.078Z,14.93
2023-03-16T05:14:03.953Z,21.70
2023-03-16T05:15:06.299Z,17.83
2023-03-16T05:16:07.760Z,21.05
2023-03-16T05:17:09.253Z,19.35
2023-03-16T05:18:10.670Z,18.60
2023-03-16T05:19:12.425Z,23.52
2023-03-16T05:20:16.304Z,17.13
2023-03-16T05:21:17.978Z,23.85
2023-03-16T05:22:19.503Z,21.65
2023-03-16T05:23:21.817Z,18.25
2023-03-16T05:24:23.744Z,16.58
2023-03-16T05:25:25.185Z,23.83
2023-03-16T05:26:26.650Z,17.00
2023-03-16T05:27:28.190Z,20.33
2023-03-16T05:28:29.640Z,17.63
2023-03-16T05:29:34.332Z,11.20
2023-03-16T05:30:36.848Z,15.10
2023-03-16T05:31:38.477Z,18.00
2023-03-16T05:32:40.063Z,16.42
2023-03-16T05:33:41.527Z,16.05
2023-03-16T05:34:43.368Z,19.27
2023-03-16T05:35:44.815Z,21.08
2023-03-16T05:36:46.304Z,26.23
2023-03-16T05:37:47.733Z,20.02
2023-03-16T05:38:49.194Z,17.48
2023-03-16T05:39:50.685Z,14.52
2023-03-16T05:40:53.062Z,23.30
2023-03-16T05:41:55.069Z,15.70
2023-03-16T05:42:57.614Z,18.10
2023-03-16T05:43:59.010Z,18.98
2023-03-16T05:45:00.853Z,21.15
2023-03-16T05:46:02.408Z,16.92
2023-03-16T05:47:04.189Z,22.05
2023-03-16T05:48:06.072Z,20.35
2023-03-16T05:49:07.511Z,18.80
2023-03-16T05:50:11.379Z,21.08
2023-03-16T05:51:14.157Z,23.50
2023-03-16T05:52:15.600Z,20.98
2023-03-16T05:53:17.051Z,15.13
2023-03-16T05:54:18.519Z,20.33
2023-03-16T05:55:20.244Z,28.05
2023-03-16T05:56:21.724Z,21.77
2023-03-16T05:57:23.787Z,18.08
2023-03-16T05:58:25.273Z,21.30
2023-03-16T05:59:26.672Z,22.50
2023-03-16T06:00:30.058Z,19.85
2023-03-16T06:01:33.794Z,23.30
2023-03-16T06:02:35.220Z,22.48
2023-03-16T06:03:36.738Z,18.13
2023-03-16T06:04:38.252Z,21.45
2023-03-16T06:05:39.715Z,18.75
2023-03-16T06:06:41.240Z,20.02
2023-03-16T06:07:43.115Z,15.55
2023-03-16T06:08:44.614Z,20.05
2023-03-16T06:09:46.085Z,15.90
2023-03-16T06:10:48.633Z,17.50
2023-03-16T06:11:50.097Z,19.20
2023-03-16T06:12:51.842Z,19.23
2023-03-16T06:13:53.503Z,21.70
2023-03-16T06:14:54.965Z,20.42
2023-03-16T06:15:56.487Z,23.23
2023-03-16T06:16:57.960Z,16.23
2023-03-16T06:17:59.459Z,17.10
2023-03-16T06:19:00.995Z,18.75
2023-03-16T06:20:03.826Z,13.88
2023-03-16T06:21:05.579Z,21.65
2023-03-16T06:22:08.475Z,20.08
2023-03-16T06:23:09.953Z,13.65
2023-03-16T06:24:11.354Z,13.85
2023-03-16T06:25:14.602Z,17.65
2023-03-16T06:26:15.998Z,13.68
2023-03-16T06:27:19.887Z,17.30
2023-03-16T06:28:23.002Z,18.52
2023-03-16T06:29:25.358Z,17.52
2023-03-16T06:30:27.065Z,16.33
2023-03-16T06:31:28.697Z,15.27
2023-03-16T06:32:30.366Z,14.20
2023-03-16T06:33:32.081Z,16.27
2023-03-16T06:34:35.074Z,15.73
2023-03-16T06:35:37.727Z,16.10
2023-03-16T06:36:39.727Z,18.75
2023-03-16T06:37:41.264Z,13.07
2023-03-16T06:38:43.025Z,12.38
2023-03-16T06:39:44.703Z,11.52
2023-03-16T06:40:46.335Z,12.38
2023-03-16T06:41:47.769Z,13.00
2023-03-16T06:42:49.959Z,14.02
2023-03-16T06:43:52.486Z,14.13
2023-03-16T06:44:53.973Z,12.88
2023-03-16T06:45:55.451Z,12.57
2023-03-16T06:46:57.847Z,12.63
2023-03-16T06:47:59.405Z,14.48
2023-03-16T06:49:00.980Z,16.05
2023-03-16T06:50:03.655Z,9.73
2023-03-16T06:51:07.459Z,12.45
2023-03-16T06:52:10.502Z,11.48
2023-03-16T06:53:12.128Z,14.82
2023-03-16T06:54:13.622Z,9.45
2023-03-16T06:55:15.076Z,15.57
2023-03-16T06:56:16.500Z,12.02
2023-03-16T06:57:18.013Z,15.23
2023-03-16T06:58:19.561Z,10.73
2023-03-16T06:59:21.547Z,9.15
2023-03-16T07:00:23.396Z,13.95
2023-03-16T07:01:25.042Z,10.60
2023-03-16T07:02:26.621Z,11.27
2023-03-16T07:03:28.013Z,14.30
2023-03-16T07:04:29.526Z,13.48
2023-03-16T07:05:31.495Z,11.52
2023-03-16T07:06:32.925Z,13.80
2023-03-16T07:07:34.328Z,13.57
2023-03-16T07:08:36.316Z,16.33
2023-03-16T07:09:41.437Z,13.40
2023-03-16T07:10:43.129Z,14.30
2023-03-16T07:11:44.787Z,11.02
2023-03-16T07:12:46.609Z,14.45
2023-03-16T07:13:48.031Z,13.15
2023-03-16T07:14:52.391Z,17.70
2023-03-16T07:15:55.232Z,12.48
2023-03-16T07:16:56.784Z,13.60
2023-03-16T07:17:58.314Z,11.90
2023-03-16T07:18:59.753Z,17.02
2023-03-16T07:20:05.671Z,10.43
2023-03-16T07:21:07.263Z,12.70
2023-03-16T07:22:09.001Z,13.43
2023-03-16T07:23:10.982Z,16.35
2023-03-16T07:24:12.871Z,14.68
2023-03-16T07:25:14.480Z,13.48
2023-03-16T07:26:15.996Z,12.55
2023-03-16T07:27:17.542Z,12.82
2023-03-16T07:28:20.087Z,16.13
2023-03-16T07:29:21.928Z,13.85
2023-03-16T07:30:25.192Z,12.90
2023-03-16T07:31:26.867Z,12.68
2023-03-16T07:32:28.347Z,14.32
2023-03-16T07:33:30.026Z,10.15
2023-03-16T07:34:31.423Z,11.18
2023-03-16T07:35:33.298Z,14.32
2023-03-16T07:36:34.737Z,12.27
2023-03-16T07:37:36.929Z,8.25
2023-03-16T07:39:40.003Z,12.10
2023-03-16T07:40:42.016Z,9.90
2023-03-16T07:41:43.958Z,17.90
2023-03-16T07:42:45.542Z,9.63
2023-03-16T07:43:47.545Z,9.85
2023-03-16T07:44:51.306Z,11.90
2023-03-16T07:45:53.443Z,10.32
2023-03-16T07:46:55.763Z,15.73
2023-03-16T07:47:57.472Z,9.70
2023-03-16T07:48:58.897Z,7.88
2023-03-16T07:50:01.223Z,11.93
2023-03-16T07:51:02.664Z,12.02
2023-03-16T07:52:04.263Z,12.57
2023-03-16T07:53:05.686Z,13.32
2023-03-16T07:54:07.179Z,13.95
2023-03-16T07:55:08.861Z,11.73
2023-03-16T07:56:11.033Z,15.25
2023-03-16T07:58:13.847Z,13.35
2023-03-16T07:59:15.331Z,10.38
2023-03-16T08:00:17.360Z,14.02
2023-03-16T08:01:18.825Z,12.15
2023-03-16T08:02:21.672Z,14.55
2023-03-16T08:03:23.588Z,10.77
2023-03-16T08:04:25.421Z,11.25
2023-03-16T08:05:27.869Z,8.60
2023-03-16T08:06:29.482Z,14.10
2023-03-16T08:07:31.920Z,10.85
2023-03-16T08:08:33.482Z,13.52
2023-03-16T08:09:35.871Z,9.80
2023-03-16T08:10:37.372Z,15.30
2023-03-16T08:11:38.851Z,10.88
2023-03-16T08:12:40.320Z,9.70
2023-03-16T08:13:43.962Z,10.80
2023-03-16T08:14:46.285Z,13.93
2023-03-16T08:16:01.930Z,12.45
2023-03-16T08:17:05.822Z,9.73
2023-03-16T08:18:07.442Z,9.43
2023-03-16T08:19:09.358Z,13.68
2023-03-16T08:20:14.612Z,8.73
2023-03-16T08:21:17.149Z,13.77
2023-03-16T08:22:19.001Z,11.00
2023-03-16T08:23:21.214Z,8.45
2023-03-16T08:24:22.870Z,10.93
2023-03-16T08:25:24.854Z,13.30
2023-03-16T08:26:27.254Z,14.68
2023-03-16T08:27:29.504Z,14.68
2023-03-16T08:28:31.835Z,10.88
2023-03-16T08:29:34.344Z,11.95
2023-03-16T08:30:35.999Z,11.75
2023-03-16T08:31:37.513Z,13.07
2023-03-16T08:32:39.880Z,11.48
2023-03-16T08:33:42.909Z,11.38
2023-03-16T08:34:45.852Z,13.82
2023-03-16T08:35:47.981Z,10.75
2023-03-16T08:37:50.768Z,12.45
2023-03-16T08:39:06.140Z,16.75
2023-03-16T08:40:15.797Z,9.63
2023-03-16T08:41:17.260Z,8.70
2023-03-16T08:42:19.791Z,8.35
2023-03-16T08:43:21.335Z,11.75
2023-03-16T08:44:25.707Z,10.75
2023-03-16T08:45:27.317Z,8.77
2023-03-16T08:46:29.043Z,13.68
2023-03-16T08:47:30.915Z,11.45
2023-03-16T08:48:36.263Z,10.57
2023-03-16T08:49:37.899Z,7.72
2023-03-16T08:50:44.041Z,10.38
2023-03-16T08:51:46.475Z,12.35
2023-03-16T08:52:48.998Z,9.40
2023-03-16T08:53:50.801Z,9.98
2023-03-16T08:55:02.432Z,12.38
2023-03-16T08:56:10.007Z,8.55
2023-03-16T08:57:12.218Z,8.20
2023-03-16T08:58:14.100Z,8.68
2023-03-16T08:59:27.327Z,8.98
2023-03-16T09:00:31.191Z,13.20
2023-03-16T09:01:33.952Z,8.43
2023-03-16T09:02:38.444Z,9.07
2023-03-16T09:03:42.917Z,7.72
2023-03-16T09:04:45.947Z,8.35
2023-03-16T09:05:47.677Z,10.80
2023-03-16T09:07:05.936Z,9.48
2023-03-16T09:08:09.664Z,10.82
2023-03-16T09:09:11.587Z,12.95
2023-03-16T09:10:16.118Z,10.65
2023-03-16T09:11:19.706Z,11.13
2023-03-16T09:12:22.254Z,11.23
2023-03-16T09:13:24.460Z,7.97
2023-03-16T09:14:25.915Z,11.50
2023-03-16T09:15:29.132Z,12.13
2023-03-16T09:16:30.833Z,8.77
2023-03-16T09:17:33.329Z,11.05
2023-03-16T09:18:36.210Z,7.03
2023-03-16T09:19:56.280Z,9.93
2023-03-16T09:21:01.338Z,8.85
2023-03-16T09:22:03.924Z,5.97
2023-03-16T09:23:05.794Z,10.75
2023-03-16T09:24:08.799Z,6.78
2023-03-16T09:25:11.283Z,10.63
2023-03-16T09:26:13.387Z,8.00
2023-03-16T09:28:18.355Z,6.60
2023-03-16T09:29:21.776Z,8.07
2023-03-16T09:30:23.480Z,10.00
2023-03-16T09:31:25.559Z,9.15
2023-03-16T09:33:31.850Z,8.70
2023-03-16T09:34:34.315Z,5.43
2023-03-16T09:35:37.030Z,6.28
2023-03-16T09:36:38.501Z,7.63
2023-03-16T09:37:44.924Z,7.93
2023-03-16T09:38:52.132Z,7.40
2023-03-16T09:39:57.945Z,9.45
2023-03-16T09:41:08.491Z,9.65
2023-03-16T09:42:10.155Z,7.15
2023-03-16T09:43:20.553Z,7.07
2023-03-16T09:44:42.552Z,6.90
2023-03-16T09:46:08.108Z,6.25
2023-03-16T09:47:11.862Z,7.35
2023-03-16T09:48:17.002Z,7.68
2023-03-16T09:49:28.363Z,9.75
2023-03-16T09:50:47.081Z,7.03
2023-03-16T09:52:08.827Z,7.38
2023-03-16T09:53:16.322Z,7.03
2023-03-16T09:54:29.610Z,7.65
2023-03-16T09:55:50.603Z,7.40
2023-03-16T09:56:53.905Z,10.23
2023-03-16T09:58:15.536Z,9.20
2023-03-16T09:59:35.658Z,7.13
2023-03-16T10:01:00.776Z,6.40
2023-03-16T10:02:28.940Z,6.68
2023-03-16T10:04:11.064Z,7.43
2023-03-16T10:05:16.009Z,8.30
2023-03-16T10:11:16.222Z,7.57
2023-03-16T10:12:19.558Z,5.55
2023-03-16T10:13:42.317Z,8.68
2023-03-16T10:14:54.201Z,6.28
2023-03-16T10:15:58.183Z,8.60
2023-03-16T10:17:08.332Z,9.30
2023-03-16T10:18:18.045Z,5.75
2023-03-16T10:19:42.070Z,9.05
2023-03-16T10:20:45.396Z,6.22
2023-03-16T10:21:48.942Z,4.43
2023-03-16T10:22:52.748Z,5.07
2023-03-16T10:23:58.604Z,6.80
2023-03-16T10:25:13.789Z,7.97
2023-03-16T10:26:24.563Z,6.72
2023-03-16T10:27:36.572Z,7.13
2023-03-16T10:28:38.493Z,6.18
2023-03-16T10:29:39.979Z,5.85
2023-03-16T10:30:42.999Z,8.07
2023-03-16T10:31:45.770Z,5.18
2023-03-16T10:33:55.662Z,7.97
2023-03-16T10:35:20.794Z,4.38
2023-03-16T10:36:34.749Z,4.85
2023-03-16T10:38:50.601Z,4.63
2023-03-16T10:39:52.220Z,5.05
2023-03-16T10:40:54.459Z,4.05
2023-03-16T10:41:57.377Z,7.25
2023-03-16T10:43:14.399Z,4.03
2023-03-16T10:44:22.576Z,6.28
2023-03-16T10:45:31.346Z,5.25
2023-03-16T10:46:42.160Z,6.80
2023-03-16T10:47:43.631Z,4.97
2023-03-16T10:48:59.226Z,7.30
2023-03-16T10:50:14.211Z,5.22
2023-03-16T10:51:19.980Z,4.28
2023-03-16T10:52:43.047Z,6.75
2023-03-16T10:53:44.701Z,7.95
2023-03-16T10:55:00.285Z,5.53
2023-03-16T10:56:11.946Z,7.25
2023-03-16T10:57:21.289Z,6.20
2023-03-16T10:58:29.666Z,4.82
2023-03-16T10:59:35.011Z,6.10
2023-03-16T11:00:41.523Z,4.32
2023-03-16T11:01:48.874Z,4.55
2023-03-16T11:02:54.220Z,7.38
2023-03-16T11:03:57.338Z,4.97
2023-03-16T11:04:58.980Z,9.48
2023-03-16T11:06:03.387Z,14.10
2023-03-16T11:07:09.652Z,6.32
2023-03-16T11:08:11.036Z,4.65
2023-03-16T11:09:22.809Z,5.70
2023-03-16T11:10:36.229Z,7.00
2023-03-16T11:11:49.329Z,4.80
2023-03-16T11:12:50.982Z,10.23
2023-03-16T11:13:57.620Z,3.67
2023-03-16T11:15:20.097Z,4.85
2023-03-16T11:17:05.591Z,4.93
2023-03-16T11:18:16.377Z,7.32
2023-03-16T11:19:21.545Z,5.88
2023-03-16T11:20:28.707Z,6.18
2023-03-16T11:21:46.488Z,4.72
2023-03-16T11:22:48.552Z,4.43
2023-03-16T11:23:55.035Z,7.72
2023-03-16T11:25:00.767Z,6.45
2023-03-16T11:26:07.754Z,6.78
2023-03-16T11:27:18.021Z,7.07
2023-03-16T11:28:34.958Z,5.00
2023-03-16T11:29:45.198Z,7.38
2023-03-16T11:31:16.743Z,6.90
2023-03-16T11:32:27.869Z,3.30
2023-03-16T11:33:31.011Z,5.57
2023-03-16T11:34:34.149Z,4.05
2023-03-16T11:35:59.219Z,6.05
2023-03-16T11:37:21.937Z,5.50
2023-03-16T11:38:48.420Z,3.78
2023-03-16T11:40:15.573Z,4.75
2023-03-16T11:41:31.744Z,5.57
2023-03-16T11:42:53.562Z,6.05
2023-03-16T11:44:13.699Z,4.43
2023-03-16T11:45:29.419Z,3.90
2023-03-16T11:46:41.846Z,5.30
2023-03-16T11:48:01.034Z,5.35
2023-03-16T11:49:35.100Z,7.05
2023-03-16T11:50:36.818Z,3.65
2023-03-16T11:52:01.451Z,6.10
2023-03-16T11:53:18.292Z,10.00
2023-03-16T11:54:58.404Z,6.88
2023-03-16T11:56:18.979Z,8.75
2023-03-16T11:57:23.371Z,6.00
2023-03-16T11:58:52.078Z,4.57
2023-03-16T12:00:05.917Z,4.60
2023-03-16T12:01:43.021Z,5.50
2023-03-16T12:02:45.273Z,5.63
2023-03-16T12:04:20.413Z,4.32
2023-03-16T12:06:22.177Z,4.68
2023-03-16T12:08:01.489Z,4.03
2023-03-16T12:09:30.672Z,5.97
2023-03-16T12:10:43.653Z,5.47
2023-03-16T12:12:04.648Z,6.15
2023-03-16T12:13:30.403Z,3.63
2023-03-16T12:14:44.097Z,4.68
2023-03-16T12:15:49.932Z,3.75
2023-03-16T12:17:09.906Z,5.38
2023-03-16T12:19:49.024Z,4.72
2023-03-16T12:20:53.980Z,5.55
2023-03-16T12:22:15.193Z,4.85
2023-03-16T12:23:31.862Z,5.10
2023-03-16T12:24:43.654Z,4.22
2023-03-16T12:25:47.567Z,6.15
2023-03-16T12:26:49.638Z,6.68
2023-03-16T12:27:54.469Z,6.32
2023-03-16T12:28:58.381Z,4.88
2023-03-16T12:30:18.705Z,6.38
2023-03-16T12:31:28.389Z,6.32
2023-03-16T12:32:43.598Z,4.95
2023-03-16T12:33:58.474Z,8.57
2023-03-16T12:35:37.494Z,8.65
2023-03-16T12:36:51.591Z,5.20
2023-03-16T12:38:02.192Z,3.38
2023-03-16T12:39:07.769Z,5.35
2023-03-16T12:40:30.960Z,4.63
2023-03-16T12:42:04.800Z,4.53
2023-03-16T12:43:39.266Z,6.47
2023-03-16T12:45:24.283Z,5.25
2023-03-16T12:46:59.697Z,4.93
2023-03-16T12:48:42.708Z,5.65
2023-03-16T12:49:44.387Z,2.88
2023-03-16T12:50:55.141Z,5.90
2023-03-16T12:52:14.835Z,7.93
2023-03-16T12:53:53.038Z,4.28
2023-03-16T12:55:13.631Z,8.32
2023-03-16T12:56:18.316Z,4.15
2023-03-16T12:57:24.005Z,5.95
2023-03-16T12:58:27.467Z,5.60
2023-03-16T12:59:36.675Z,7.25
2023-03-16T13:00:42.548Z,4.03
2023-03-16T13:01:45.955Z,4.60
2023-03-16T13:02:57.205Z,3.72
2023-03-16T13:04:03.192Z,3.80
2023-03-16T13:05:16.488Z,4.97
2023-03-16T13:06:24.434Z,10.85
2023-03-16T13:08:46.005Z,5.95
2023-03-16T13:09:53.647Z,4.13
2023-03-16T13:11:00.893Z,3.60
2023-03-16T13:12:06.600Z,7.63
2023-03-16T13:13:14.923Z,6.80
2023-03-16T13:14:33.774Z,6.00
2023-03-16T13:15:35.215Z,4.07
2023-03-16T13:16:37.909Z,6.88
2023-03-16T13:17:39.548Z,9.07
2023-03-16T13:18:45.104Z,3.05
2023-03-16T13:20:00.153Z,4.70
2023-03-16T13:21:33.651Z,3.85
2023-03-16T13:22:48.467Z,3.47
2023-03-16T13:24:01.303Z,3.75
2023-03-16T13:25:23.227Z,4.22
2023-03-16T13:26:31.370Z,5.38
2023-03-16T13:27:34.265Z,4.10
2023-03-16T13:28:38.599Z,4.95
2023-03-16T13:29:40.380Z,3.65
2023-03-16T13:30:48.592Z,4.03
2023-03-16T13:31:51.714Z,16.02
2023-03-16T13:32:56.122Z,10.35
2023-03-16T13:34:00.022Z,5.18
2023-03-16T13:35:05.892Z,5.90
2023-03-16T13:36:07.601Z,5.15
2023-03-16T13:37:14.996Z,3.45
2023-03-16T13:38:18.169Z,4.88
2023-03-16T13:39:27.465Z,3.92
2023-03-16T13:40:29.091Z,10.23
2023-03-16T13:41:31.303Z,8.73
2023-03-16T13:42:33.847Z,4.63
2023-03-16T13:43:41.735Z,3.50
2023-03-16T13:45:45.012Z,7.63
2023-03-16T13:46:49.428Z,4.88
2023-03-16T13:47:51.674Z,10.82
2023-03-16T13:48:53.134Z,7.38
2023-03-16T13:49:59.208Z,11.48
2023-03-16T13:51:00.700Z,11.27
2023-03-16T13:52:03.658Z,17.17
2023-03-16T13:53:13.763Z,3.95
2023-03-16T13:54:23.691Z,6.28
2023-03-16T13:55:46.845Z,8.43
2023-03-16T13:56:48.922Z,10.07
2023-03-16T13:57:50.429Z,5.53
2023-03-16T13:58:53.790Z,3.47
2023-03-16T14:00:26.332Z,8.10
2023-03-16T14:01:31.105Z,9.50
2023-03-16T14:02:41.577Z,10.98
2023-03-16T14:03:44.173Z,12.52
2023-03-16T14:04:45.738Z,24.45
2023-03-16T14:05:47.579Z,16.35
2023-03-16T14:06:54.929Z,22.10
2023-03-16T14:07:58.389Z,5.93
2023-03-16T14:09:04.443Z,15.70
2023-03-16T14:10:09.209Z,10.98
2023-03-16T14:11:10.919Z,16.02
2023-03-16T14:12:15.144Z,15.00
2023-03-16T14:13:29.124Z,29.17
2023-03-16T14:14:37.024Z,4.85
2023-03-16T14:15:38.709Z,3.42
2023-03-16T14:16:40.255Z,16.40
2023-03-16T14:17:43.052Z,6.28
2023-03-16T14:18:48.912Z,6.45
2023-03-16T14:19:52.980Z,5.70
2023-03-16T14:20:55.627Z,7.00
2023-03-16T14:22:01.048Z,5.95
2023-03-16T14:23:02.554Z,6.00
2023-03-16T14:24:06.922Z,14.55
2023-03-16T14:25:19.171Z,7.35
2023-03-16T14:26:24.703Z,7.50
2023-03-16T14:27:32.919Z,11.38
2023-03-16T14:28:34.448Z,10.68
2023-03-16T14:29:37.013Z,9.77
2023-03-16T14:30:38.520Z,4.95
2023-03-16T14:31:40.876Z,4.00
2023-03-16T14:32:42.480Z,3.72
2023-03-16T14:33:45.988Z,3.08
2023-03-16T14:34:51.230Z,11.15